METAR Data

Data at: 2102 UTC 01 Dec 2021

METAR for:KBHB (Bar Harbor/Hancock C, ME, US)
Text:KBHB 012056Z AUTO 00000KT 10SM CLR 04/M03 A3004 RMK AO2 SLP174 T00441028 53020
Temperature: 4.4°C ( 40°F)
Dewpoint: -2.8°C ( 27°F) [RH = 59%]
Pressure (altimeter):30.04 inches Hg (1017.4 mb) [Sea level pressure: 1017.4 mb]
Winds:calm
Visibility:10 or more sm (16+ km)
Ceiling:at least 12,000 feet AGL
Clouds:sky clear below 12,000 feet AGL
QC Flag:automated observation with no human augmentation